This is the latest recevied weather packets stored in our database for station/object YC0ACE-13. If no packets are shown the sender has not sent any weather packets the latest 10 day(s).
| Time | Temp. | Humidity | Pressure | Rain* | Wind** | Luminosity | Snow |
|---|---|---|---|---|---|---|---|
| 1777865725 | 32.22° C | 63% | 1015.9 hPa | 0 mm | - | 675 W/m² | - |
| 1777865425 | 32.78° C | 62% | 1015.9 hPa | 0 mm | - | 410 W/m² | - |
| 1777865125 | 33.33° C | 61% | 1016.3 hPa | 0 mm | - | 636 W/m² | - |
| 1777864824 | 32.78° C | 61% | 1016.3 hPa | 0 mm | - | 720 W/m² | - |
| 1777864524 | 32.22° C | 63% | 1016.3 hPa | 0 mm | - | 718 W/m² | - |
| 1777864224 | 32.78° C | 61% | 1016.3 hPa | 0 mm | - | 616 W/m² | - |
| 1777863925 | 32.22° C | 64% | 1016.3 hPa | 0 mm | - | 630 W/m² | - |
| 1777863625 | 32.22° C | 64% | 1016.3 hPa | 0 mm | - | 618 W/m² | - |
| 1777863325 | 32.22° C | 65% | 1016.6 hPa | 0 mm | - | 606 W/m² | - |
| 1777863027 | 31.67° C | 66% | 1016.3 hPa | 0 mm | - | 594 W/m² | - |
| 1777862724 | 31.11° C | 68% | 1016.6 hPa | 0 mm | - | 539 W/m² | - |
| 1777862425 | 31.11° C | 68% | 1016.6 hPa | 0 mm | - | 566 W/m² | - |
| 1777862125 | 31.11° C | 68% | 1016.6 hPa | 0 mm | - | 569 W/m² | - |
| 1777861825 | 31.11° C | 68% | 1016.6 hPa | 0 mm | - | 546 W/m² | - |
| 1777861525 | 30.56° C | 69% | 1016.6 hPa | 0 mm | - | 556 W/m² | - |
| 1777861224 | 30.56° C | 70% | 1016.6 hPa | 0 mm | - | 544 W/m² | - |
| 1777860924 | 30.56° C | 70% | 1016.6 hPa | 0 mm | - | 500 W/m² | - |
| 1777860625 | 30.56° C | 70% | 1016.6 hPa | 0 mm | - | 510 W/m² | - |
| 1777860325 | 30.56° C | 69% | 1016.6 hPa | 0 mm | - | 489 W/m² | - |
| 1777860025 | 30° C | 71% | 1016.6 hPa | 0 mm | - | 477 W/m² | - |
| 1777859725 | 30.56° C | 71% | 1016.6 hPa | 0 mm | - | 481 W/m² | - |
| 1777859425 | 30° C | 72% | 1016.6 hPa | 0 mm | - | 449 W/m² | - |
| 1777859124 | 30° C | 71% | 1016.6 hPa | 0 mm | - | 434 W/m² | - |
| 1777858824 | 29.44° C | 74% | 1016.6 hPa | 0 mm | - | 394 W/m² | - |
| 1777858524 | 29.44° C | 74% | 1016.6 hPa | 0 mm | - | 359 W/m² | - |
* Rain latest hour (hover to see other rain measurements)
** Current wind speed in m/s (hover to see current wind gust speed)